PWSweather.com
Personal Weather Stations
Station Observations
INORDPAS37
Bondues, BonduesFR 59910

BonduesBonduesFR 59910

Lat: 50.7, Lon: 3.09

Elevation: 66

Station Type: NetAtmo

High Low Average
Temperature 72.5°F22.5°C 54.1°F12.3°C 61.1°F16.2°C
Dew Point 57.2°F14.0°C 40.8°F4.9°C 48.0°F8.9°C
Winds 4.3 mph 6.9 kmh 0.7 mph 1.1 kmh 1.0 mph W1.6 kmh W
Wind Gusts 11.9 mph19.2 kmh 1.8 mph2.9 kmh 4.0 mph6.4 kmh
Humidity 71% 61% 67%
Pressure 30.15 in1021.0 mb 30.05 in1017.6 mb -
Precipitation 0.39 in9.9 mm - -
Hour Temp Dew Point Humidity Winds Wind Gusts Pressure Precip Precip Rate Daily Precip Total
12:03 AM 56.7°F13.7°C 41.4°F5.2°C 61% 1.3 mph WNW2.1 kmh WNW 3.8 mph6.1 kmh 30.05 in1017.6 mb 0.00 in0.0 mm 0.00 in0.0 mm 0.00 in0.0 mm
12:22 AM 56.1°F13.4°C 40.8°F4.9°C 61% 1.8 mph WNW2.9 kmh WNW 4.9 mph7.9 kmh 30.05 in1017.6 mb 0.00 in0.0 mm 0.00 in0.0 mm 0.00 in0.0 mm
12:43 AM 55.6°F13.1°C 40.8°F4.9°C 62% 1.3 mph WNW2.1 kmh WNW 4.3 mph6.9 kmh 30.05 in1017.6 mb 0.00 in0.0 mm 0.00 in0.0 mm 0.00 in0.0 mm
01:03 AM 55.4°F13.0°C 41.0°F5.0°C 63% 1.8 mph W2.9 kmh W 4.3 mph6.9 kmh 30.05 in1017.6 mb 0.00 in0.0 mm 0.00 in0.0 mm 0.00 in0.0 mm
01:23 AM 55.2°F12.9°C 40.8°F4.9°C 63% 1.3 mph W2.1 kmh W 3.1 mph5.0 kmh 30.05 in1017.6 mb 0.00 in0.0 mm 0.00 in0.0 mm 0.00 in0.0 mm
01:44 AM 55.2°F12.9°C 41.2°F5.1°C 64% 1.8 mph WNW2.9 kmh WNW 4.3 mph6.9 kmh 30.06 in1017.9 mb 0.00 in0.0 mm 0.00 in0.0 mm 0.00 in0.0 mm
02:03 AM 55.2°F12.9°C 41.2°F5.1°C 64% 1.3 mph W2.1 kmh W 3.8 mph6.1 kmh 30.06 in1017.9 mb 0.00 in0.0 mm 0.00 in0.0 mm 0.00 in0.0 mm
02:24 AM 55.2°F12.9°C 41.2°F5.1°C 64% 1.3 mph WNW2.1 kmh WNW 3.1 mph5.0 kmh 30.06 in1017.9 mb 0.00 in0.0 mm 0.01 in0.3 mm 0.00 in0.0 mm
02:55 AM 55.2°F12.9°C 41.5°F5.3°C 65% 1.8 mph NW2.9 kmh NW 4.9 mph7.9 kmh 30.06 in1017.9 mb 0.03 in0.8 mm 0.05 in1.3 mm 0.03 in0.8 mm
03:01 AM 54.9°F12.7°C 41.2°F5.1°C 65% 1.3 mph WNW2.1 kmh WNW 3.1 mph5.0 kmh 30.06 in1017.9 mb 0.03 in0.8 mm 0.00 in0.0 mm 0.03 in0.8 mm
03:21 AM 54.7°F12.6°C 41.0°F5.0°C 65% 1.8 mph WNW2.9 kmh WNW 3.8 mph6.1 kmh 30.06 in1017.9 mb 0.02 in0.5 mm 0.00 in0.0 mm 0.03 in0.8 mm
03:46 AM 54.5°F12.5°C 41.4°F5.2°C 66% 1.3 mph WNW2.1 kmh WNW 3.8 mph6.1 kmh 30.06 in1017.9 mb 0.00 in0.0 mm 0.00 in0.0 mm 0.03 in0.8 mm
04:06 AM 54.3°F12.4°C 41.2°F5.1°C 66% 1.8 mph NW2.9 kmh NW 4.9 mph7.9 kmh 30.07 in1018.3 mb 0.00 in0.0 mm 0.00 in0.0 mm 0.03 in0.8 mm
04:26 AM 54.1°F12.3°C 41.4°F5.2°C 67% 1.8 mph WNW2.9 kmh WNW 4.3 mph6.9 kmh 30.07 in1018.3 mb 0.00 in0.0 mm 0.00 in0.0 mm 0.03 in0.8 mm
04:46 AM 54.1°F12.3°C 41.4°F5.2°C 67% 1.8 mph NW2.9 kmh NW 4.9 mph7.9 kmh 30.08 in1018.6 mb 0.00 in0.0 mm 0.00 in0.0 mm 0.03 in0.8 mm
05:07 AM 54.1°F12.3°C 41.7°F5.4°C 68% 1.8 mph WNW2.9 kmh WNW 4.9 mph7.9 kmh 30.08 in1018.6 mb 0.00 in0.0 mm 0.00 in0.0 mm 0.03 in0.8 mm
05:27 AM 54.1°F12.3°C 41.7°F5.4°C 68% 1.8 mph NW2.9 kmh NW 3.8 mph6.1 kmh 30.09 in1019.0 mb 0.00 in0.0 mm 0.00 in0.0 mm 0.03 in0.8 mm
05:47 AM 54.1°F12.3°C 41.7°F5.4°C 68% 1.3 mph NW2.1 kmh NW 3.1 mph5.0 kmh 30.09 in1019.0 mb 0.00 in0.0 mm 0.00 in0.0 mm 0.03 in0.8 mm
06:08 AM 54.1°F12.3°C 41.7°F5.4°C 68% 1.8 mph NW2.9 kmh NW 5.6 mph9.0 kmh 30.10 in1019.3 mb 0.00 in0.0 mm 0.00 in0.0 mm 0.03 in0.8 mm
06:28 AM 54.1°F12.3°C 41.7°F5.4°C 68% 1.3 mph W2.1 kmh W 3.8 mph6.1 kmh 30.10 in1019.3 mb 0.00 in0.0 mm 0.00 in0.0 mm 0.03 in0.8 mm
06:49 AM 54.5°F12.5°C 42.1°F5.6°C 68% 1.8 mph NW2.9 kmh NW 4.9 mph7.9 kmh 30.11 in1019.6 mb 0.00 in0.0 mm 0.00 in0.0 mm 0.03 in0.8 mm
07:08 AM 54.9°F12.7°C 42.8°F6.0°C 69% 1.3 mph NW2.1 kmh NW 3.1 mph5.0 kmh 30.11 in1019.6 mb 0.00 in0.0 mm 0.00 in0.0 mm 0.03 in0.8 mm
07:29 AM 55.6°F13.1°C 43.5°F6.4°C 69% 1.8 mph NW2.9 kmh NW 4.9 mph7.9 kmh 30.12 in1020.0 mb 0.00 in0.0 mm 0.00 in0.0 mm 0.03 in0.8 mm
07:48 AM 56.1°F13.4°C 44.1°F6.7°C 69% 1.3 mph NW2.1 kmh NW 4.3 mph6.9 kmh 30.11 in1019.6 mb 0.00 in0.0 mm 0.00 in0.0 mm 0.03 in0.8 mm
08:15 AM 56.5°F13.6°C 44.4°F6.9°C 69% 1.3 mph NW2.1 kmh NW 4.3 mph6.9 kmh 30.12 in1020.0 mb 0.00 in0.0 mm 0.00 in0.0 mm 0.03 in0.8 mm
08:35 AM 57.4°F14.1°C 45.3°F7.4°C 69% 1.3 mph WNW2.1 kmh WNW 2.5 mph4.0 kmh 30.13 in1020.3 mb 0.00 in0.0 mm 0.00 in0.0 mm 0.03 in0.8 mm
08:55 AM 58.3°F14.6°C 46.0°F7.8°C 69% 1.3 mph NW2.1 kmh NW 2.5 mph4.0 kmh 30.13 in1020.3 mb 0.00 in0.0 mm 0.00 in0.0 mm 0.03 in0.8 mm
09:15 AM 58.6°F14.8°C 46.4°F8.0°C 69% 1.3 mph NW2.1 kmh NW 3.8 mph6.1 kmh 30.14 in1020.7 mb 0.00 in0.0 mm 0.00 in0.0 mm 0.03 in0.8 mm
09:35 AM 58.8°F14.9°C 46.6°F8.1°C 69% 1.3 mph NW2.1 kmh NW 4.3 mph6.9 kmh 30.14 in1020.7 mb 0.00 in0.0 mm 0.01 in0.3 mm 0.04 in1.0 mm
09:42 AM 59.0°F15.0°C 46.8°F8.2°C 69% 1.3 mph NW2.1 kmh NW 3.1 mph5.0 kmh 30.14 in1020.7 mb 0.01 in0.3 mm 0.07 in1.8 mm 0.04 in1.0 mm
10:03 AM 59.2°F15.1°C 46.9°F8.3°C 69% 1.3 mph NW2.1 kmh NW 3.8 mph6.1 kmh 30.14 in1020.7 mb 0.01 in0.3 mm 0.00 in0.0 mm 0.04 in1.0 mm
10:22 AM 59.5°F15.3°C 47.3°F8.5°C 69% 1.3 mph NW2.1 kmh NW 3.1 mph5.0 kmh 30.14 in1020.7 mb 0.01 in0.3 mm 0.00 in0.0 mm 0.04 in1.0 mm
10:43 AM 60.6°F15.9°C 48.4°F9.1°C 69% 1.3 mph NW2.1 kmh NW 4.3 mph6.9 kmh 30.14 in1020.7 mb 0.00 in0.0 mm 0.00 in0.0 mm 0.04 in1.0 mm
11:03 AM 61.9°F16.6°C 50.0°F10.0°C 70% 1.3 mph NW2.1 kmh NW 6.9 mph11.1 kmh 30.14 in1020.7 mb 0.00 in0.0 mm 0.00 in0.0 mm 0.04 in1.0 mm
11:23 AM 62.8°F17.1°C 50.9°F10.5°C 70% 1.8 mph NW2.9 kmh NW 4.9 mph7.9 kmh 30.14 in1020.7 mb 0.00 in0.0 mm 0.00 in0.0 mm 0.04 in1.0 mm
11:43 AM 63.9°F17.7°C 51.4°F10.8°C 69% 1.3 mph N2.1 kmh N 3.8 mph6.1 kmh 30.14 in1020.7 mb 0.00 in0.0 mm 0.00 in0.0 mm 0.04 in1.0 mm
12:04 PM 65.1°F18.4°C 52.7°F11.5°C 69% 0.7 mph W1.1 kmh W 3.8 mph6.1 kmh 30.14 in1020.7 mb 0.00 in0.0 mm 0.00 in0.0 mm 0.04 in1.0 mm
12:24 PM 65.7°F18.7°C 53.2°F11.8°C 69% 1.3 mph N2.1 kmh N 3.8 mph6.1 kmh 30.14 in1020.7 mb 0.00 in0.0 mm 0.00 in0.0 mm 0.04 in1.0 mm
12:44 PM 66.0°F18.9°C 53.1°F11.7°C 68% 1.3 mph NNW2.1 kmh NNW 4.9 mph7.9 kmh 30.13 in1020.3 mb 0.00 in0.0 mm 0.00 in0.0 mm 0.04 in1.0 mm
01:05 PM 67.3°F19.6°C 54.3°F12.4°C 68% 1.8 mph NNW2.9 kmh NNW 4.9 mph7.9 kmh 30.13 in1020.3 mb 0.00 in0.0 mm 0.00 in0.0 mm 0.04 in1.0 mm
01:25 PM 68.7°F20.4°C 55.2°F12.9°C 67% 2.5 mph N4.0 kmh N 6.9 mph11.1 kmh 30.13 in1020.3 mb 0.00 in0.0 mm 0.00 in0.0 mm 0.04 in1.0 mm
01:45 PM 68.9°F20.5°C 55.0°F12.8°C 66% 1.8 mph NW2.9 kmh NW 6.9 mph11.1 kmh 30.13 in1020.3 mb 0.00 in0.0 mm 0.00 in0.0 mm 0.04 in1.0 mm
02:05 PM 69.3°F20.7°C 55.4°F13.0°C 66% 1.3 mph NNW2.1 kmh NNW 6.9 mph11.1 kmh 30.12 in1020.0 mb 0.00 in0.0 mm 0.00 in0.0 mm 0.04 in1.0 mm
02:26 PM 70.2°F21.2°C 55.8°F13.2°C 65% 1.8 mph N2.9 kmh N 4.9 mph7.9 kmh 30.11 in1019.6 mb 0.00 in0.0 mm 0.00 in0.0 mm 0.04 in1.0 mm
02:45 PM 71.1°F21.7°C 56.7°F13.7°C 65% 1.8 mph N2.9 kmh N 4.9 mph7.9 kmh 30.11 in1019.6 mb 0.00 in0.0 mm 0.00 in0.0 mm 0.04 in1.0 mm
03:06 PM 72.1°F22.3°C 57.2°F14.0°C 64% 1.8 mph NNW2.9 kmh NNW 4.3 mph6.9 kmh 30.11 in1019.6 mb 0.00 in0.0 mm 0.00 in0.0 mm 0.04 in1.0 mm
03:26 PM 72.5°F22.5°C 57.2°F14.0°C 63% 1.8 mph NW2.9 kmh NW 4.9 mph7.9 kmh 30.10 in1019.3 mb 0.00 in0.0 mm 0.00 in0.0 mm 0.04 in1.0 mm
03:47 PM 72.1°F22.3°C 56.5°F13.6°C 62% 1.3 mph NNW2.1 kmh NNW 4.3 mph6.9 kmh 30.09 in1019.0 mb 0.00 in0.0 mm 0.00 in0.0 mm 0.04 in1.0 mm
04:07 PM 72.5°F22.5°C 56.7°F13.7°C 62% 2.5 mph NW4.0 kmh NW 6.9 mph11.1 kmh 30.09 in1019.0 mb 0.00 in0.0 mm 0.00 in0.0 mm 0.04 in1.0 mm
04:26 PM 72.0°F22.2°C 55.8°F13.2°C 61% 1.8 mph N2.9 kmh N 6.9 mph11.1 kmh 30.10 in1019.3 mb 0.01 in0.3 mm 0.04 in1.0 mm 0.06 in1.5 mm
04:47 PM 70.2°F21.2°C 55.0°F12.8°C 63% 1.3 mph N2.1 kmh N 3.1 mph5.0 kmh 30.10 in1019.3 mb 0.02 in0.5 mm 0.02 in0.5 mm 0.06 in1.5 mm
05:07 PM 68.7°F20.4°C 54.0°F12.2°C 64% 0.7 mph NW1.1 kmh NW 1.8 mph2.9 kmh 30.09 in1019.0 mb 0.02 in0.5 mm 0.00 in0.0 mm 0.06 in1.5 mm
05:27 PM 67.6°F19.8°C 53.4°F11.9°C 65% 4.3 mph N6.9 kmh N 11.9 mph19.2 kmh 30.09 in1019.0 mb 0.15 in3.8 mm 0.38 in9.7 mm 0.20 in5.1 mm
05:47 PM 65.3°F18.5°C 51.3°F10.7°C 65% 1.8 mph NE2.9 kmh NE 4.3 mph6.9 kmh 30.11 in1019.6 mb 0.28 in7.1 mm 0.41 in10.4 mm 0.35 in8.9 mm
06:08 PM 64.6°F18.1°C 50.9°F10.5°C 66% 1.3 mph WNW2.1 kmh WNW 3.1 mph5.0 kmh 30.10 in1019.3 mb 0.29 in7.4 mm 0.01 in0.3 mm 0.35 in8.9 mm
06:28 PM 64.6°F18.1°C 51.3°F10.7°C 67% 0.7 mph W1.1 kmh W 2.5 mph4.0 kmh 30.10 in1019.3 mb 0.15 in3.8 mm 0.00 in0.0 mm 0.35 in8.9 mm
06:48 PM 64.9°F18.3°C 52.2°F11.2°C 68% 1.3 mph WNW2.1 kmh WNW 2.5 mph4.0 kmh 30.11 in1019.6 mb 0.01 in0.3 mm 0.00 in0.0 mm 0.35 in8.9 mm
07:09 PM 64.4°F18.0°C 51.6°F10.9°C 68% 0.7 mph NW1.1 kmh NW 1.8 mph2.9 kmh 30.11 in1019.6 mb 0.01 in0.3 mm 0.00 in0.0 mm 0.36 in9.1 mm
07:28 PM 64.2°F17.9°C 51.8°F11.0°C 69% 0.7 mph NW1.1 kmh NW 1.8 mph2.9 kmh 30.11 in1019.6 mb 0.00 in0.0 mm 0.00 in0.0 mm 0.36 in9.1 mm
07:49 PM 64.0°F17.8°C 51.6°F10.9°C 69% 0.7 mph SW1.1 kmh SW 1.8 mph2.9 kmh 30.11 in1019.6 mb 0.01 in0.3 mm 0.02 in0.5 mm 0.37 in9.4 mm
08:09 PM 63.5°F17.5°C 51.1°F10.6°C 69% 2.5 mph NE4.0 kmh NE 6.9 mph11.1 kmh 30.12 in1020.0 mb 0.04 in1.0 mm 0.04 in1.0 mm 0.39 in9.9 mm
08:29 PM 62.4°F16.9°C 50.0°F10.0°C 69% 1.3 mph NNE2.1 kmh NNE 4.3 mph6.9 kmh 30.12 in1020.0 mb 0.04 in1.0 mm 0.00 in0.0 mm 0.39 in9.9 mm
08:55 PM 61.9°F16.6°C 49.6°F9.8°C 69% 0.7 mph W1.1 kmh W 2.5 mph4.0 kmh 30.12 in1020.0 mb 0.03 in0.8 mm 0.00 in0.0 mm 0.39 in9.9 mm
09:15 PM 61.3°F16.3°C 49.1°F9.5°C 69% 0.7 mph SW1.1 kmh SW 1.8 mph2.9 kmh 30.13 in1020.3 mb 0.00 in0.0 mm 0.00 in0.0 mm 0.39 in9.9 mm
09:35 PM 61.0°F16.1°C 49.1°F9.5°C 70% 0.7 mph W1.1 kmh W 2.5 mph4.0 kmh 30.13 in1020.3 mb 0.00 in0.0 mm 0.00 in0.0 mm 0.39 in9.9 mm
09:55 PM 60.8°F16.0°C 48.9°F9.4°C 70% 0.7 mph W1.1 kmh W 1.8 mph2.9 kmh 30.13 in1020.3 mb 0.00 in0.0 mm 0.00 in0.0 mm 0.39 in9.9 mm
10:15 PM 60.6°F15.9°C 48.7°F9.3°C 70% 1.3 mph NW2.1 kmh NW 3.1 mph5.0 kmh 30.13 in1020.3 mb 0.00 in0.0 mm 0.00 in0.0 mm 0.39 in9.9 mm
10:35 PM 60.3°F15.7°C 48.4°F9.1°C 70% 0.7 mph W1.1 kmh W 2.5 mph4.0 kmh 30.13 in1020.3 mb 0.00 in0.0 mm 0.00 in0.0 mm 0.39 in9.9 mm
10:55 PM 60.1°F15.6°C 48.2°F9.0°C 70% 0.7 mph W1.1 kmh W 1.8 mph2.9 kmh 30.13 in1020.3 mb 0.00 in0.0 mm 0.00 in0.0 mm 0.39 in9.9 mm
11:15 PM 60.1°F15.6°C 48.2°F9.0°C 70% 0.7 mph NW1.1 kmh NW 1.8 mph2.9 kmh 30.13 in1020.3 mb 0.00 in0.0 mm 0.00 in0.0 mm 0.36 in9.1 mm
11:27 PM 60.1°F15.6°C 48.6°F9.2°C 71% 1.3 mph ENE2.1 kmh ENE 4.3 mph6.9 kmh 30.15 in1021.0 mb 0.01 in0.3 mm 0.06 in1.5 mm 0.01 in0.3 mm
11:47 PM 60.1°F15.6°C 48.6°F9.2°C 71% 1.8 mph ENE2.9 kmh ENE 7.4 mph11.9 kmh 30.14 in1020.7 mb 0.19 in4.8 mm 0.55 in14.0 mm 0.19 in4.8 mm